sensor_id;sensor_type;location;lat;lon;timestamp;temperature;humidity
14170;DHT22;63889;50.596;8.690;2023-08-06T00:02:21;16.80;99.90
14170;DHT22;63889;50.596;8.690;2023-08-06T00:04:46;16.70;99.90
14170;DHT22;63889;50.596;8.690;2023-08-06T00:07:12;16.80;99.90
14170;DHT22;63889;50.596;8.690;2023-08-06T00:09:38;16.90;99.90
14170;DHT22;63889;50.596;8.690;2023-08-06T00:12:04;17.00;99.90
14170;DHT22;63889;50.596;8.690;2023-08-06T00:14:29;17.10;99.90
14170;DHT22;63889;50.596;8.690;2023-08-06T00:16:55;17.10;99.90
14170;DHT22;63889;50.596;8.690;2023-08-06T00:19:20;17.20;99.90
14170;DHT22;63889;50.596;8.690;2023-08-06T00:21:46;17.00;99.90
14170;DHT22;63889;50.596;8.690;2023-08-06T00:24:25;17.00;99.90
14170;DHT22;63889;50.596;8.690;2023-08-06T00:26:51;16.80;99.90
14170;DHT22;63889;50.596;8.690;2023-08-06T00:29:18;16.70;99.90
14170;DHT22;63889;50.596;8.690;2023-08-06T00:31:44;16.70;99.90
14170;DHT22;63889;50.596;8.690;2023-08-06T00:34:09;16.90;99.90
14170;DHT22;63889;50.596;8.690;2023-08-06T00:36:37;17.00;99.90
14170;DHT22;63889;50.596;8.690;2023-08-06T00:39:03;17.10;99.90
14170;DHT22;63889;50.596;8.690;2023-08-06T00:41:28;16.80;99.90
14170;DHT22;63889;50.596;8.690;2023-08-06T00:43:54;16.70;99.90
14170;DHT22;63889;50.596;8.690;2023-08-06T00:46:21;16.80;99.90
14170;DHT22;63889;50.596;8.690;2023-08-06T00:48:55;16.60;99.90
14170;DHT22;63889;50.596;8.690;2023-08-06T00:51:22;16.80;99.90
14170;DHT22;63889;50.596;8.690;2023-08-06T00:53:58;16.80;99.90
14170;DHT22;63889;50.596;8.690;2023-08-06T00:56:24;16.90;99.90
14170;DHT22;63889;50.596;8.690;2023-08-06T00:58:50;16.70;99.90
14170;DHT22;63889;50.596;8.690;2023-08-06T01:01:16;16.60;99.90
14170;DHT22;63889;50.596;8.690;2023-08-06T01:03:41;16.50;99.90
14170;DHT22;63889;50.596;8.690;2023-08-06T01:06:07;16.80;99.90
14170;DHT22;63889;50.596;8.690;2023-08-06T01:08:56;16.80;99.90
14170;DHT22;63889;50.596;8.690;2023-08-06T01:11:54;16.50;99.90
14170;DHT22;63889;50.596;8.690;2023-08-06T01:14:33;16.70;99.90
14170;DHT22;63889;50.596;8.690;2023-08-06T01:17:01;16.60;99.90
14170;DHT22;63889;50.596;8.690;2023-08-06T01:19:28;16.60;99.90
14170;DHT22;63889;50.596;8.690;2023-08-06T01:21:53;16.40;99.90
14170;DHT22;63889;50.596;8.690;2023-08-06T01:24:19;16.40;99.90
14170;DHT22;63889;50.596;8.690;2023-08-06T01:27:08;16.40;99.90
14170;DHT22;63889;50.596;8.690;2023-08-06T01:29:48;16.30;99.90
14170;DHT22;63889;50.596;8.690;2023-08-06T01:32:18;16.30;99.90
14170;DHT22;63889;50.596;8.690;2023-08-06T01:34:46;16.30;99.90
14170;DHT22;63889;50.596;8.690;2023-08-06T01:37:13;16.30;99.90
14170;DHT22;63889;50.596;8.690;2023-08-06T01:39:42;16.40;99.90
14170;DHT22;63889;50.596;8.690;2023-08-06T01:42:08;16.40;99.90
14170;DHT22;63889;50.596;8.690;2023-08-06T01:44:33;16.60;99.90
14170;DHT22;63889;50.596;8.690;2023-08-06T01:46:59;16.50;99.90
14170;DHT22;63889;50.596;8.690;2023-08-06T01:49:24;16.50;99.90
14170;DHT22;63889;50.596;8.690;2023-08-06T01:51:50;16.70;99.90
14170;DHT22;63889;50.596;8.690;2023-08-06T01:54:15;16.80;99.90
14170;DHT22;63889;50.596;8.690;2023-08-06T01:56:41;16.90;99.90
14170;DHT22;63889;50.596;8.690;2023-08-06T01:59:06;16.80;99.90
14170;DHT22;63889;50.596;8.690;2023-08-06T02:01:32;16.70;99.90
14170;DHT22;63889;50.596;8.690;2023-08-06T02:03:57;16.50;99.90
14170;DHT22;63889;50.596;8.690;2023-08-06T02:06:23;16.40;99.90
14170;DHT22;63889;50.596;8.690;2023-08-06T02:08:48;16.50;99.90
14170;DHT22;63889;50.596;8.690;2023-08-06T02:11:14;16.50;99.90
14170;DHT22;63889;50.596;8.690;2023-08-06T02:13:39;16.40;99.90
14170;DHT22;63889;50.596;8.690;2023-08-06T02:16:07;16.30;99.90
14170;DHT22;63889;50.596;8.690;2023-08-06T02:18:33;16.40;99.90
14170;DHT22;63889;50.596;8.690;2023-08-06T02:20:59;16.50;99.90
14170;DHT22;63889;50.596;8.690;2023-08-06T02:23:26;16.50;99.90
14170;DHT22;63889;50.596;8.690;2023-08-06T02:26:02;16.70;99.90
14170;DHT22;63889;50.596;8.690;2023-08-06T02:28:31;16.70;99.90
14170;DHT22;63889;50.596;8.690;2023-08-06T02:30:57;16.70;99.90
14170;DHT22;63889;50.596;8.690;2023-08-06T02:33:22;16.70;99.90
14170;DHT22;63889;50.596;8.690;2023-08-06T02:35:48;16.90;99.90
14170;DHT22;63889;50.596;8.690;2023-08-06T02:38:13;16.80;99.90
14170;DHT22;63889;50.596;8.690;2023-08-06T02:40:46;16.50;99.90
14170;DHT22;63889;50.596;8.690;2023-08-06T02:43:12;16.40;99.90
14170;DHT22;63889;50.596;8.690;2023-08-06T02:45:37;16.50;99.90
14170;DHT22;63889;50.596;8.690;2023-08-06T02:48:03;16.70;99.90
14170;DHT22;63889;50.596;8.690;2023-08-06T02:50:29;16.60;99.90
14170;DHT22;63889;50.596;8.690;2023-08-06T02:52:54;16.60;99.90
14170;DHT22;63889;50.596;8.690;2023-08-06T02:55:20;16.50;99.90
14170;DHT22;63889;50.596;8.690;2023-08-06T02:57:45;16.40;99.90
14170;DHT22;63889;50.596;8.690;2023-08-06T03:00:11;16.50;99.90
14170;DHT22;63889;50.596;8.690;2023-08-06T03:02:37;16.50;99.90
14170;DHT22;63889;50.596;8.690;2023-08-06T03:05:03;16.40;99.90
14170;DHT22;63889;50.596;8.690;2023-08-06T03:07:29;16.30;99.90
14170;DHT22;63889;50.596;8.690;2023-08-06T03:09:54;16.40;99.90
14170;DHT22;63889;50.596;8.690;2023-08-06T03:12:20;16.50;99.90
14170;DHT22;63889;50.596;8.690;2023-08-06T03:14:46;16.70;99.90
14170;DHT22;63889;50.596;8.690;2023-08-06T03:17:11;16.90;99.90
14170;DHT22;63889;50.596;8.690;2023-08-06T03:19:37;16.80;99.90
14170;DHT22;63889;50.596;8.690;2023-08-06T03:22:02;17.00;99.90
14170;DHT22;63889;50.596;8.690;2023-08-06T03:24:28;17.00;99.90
14170;DHT22;63889;50.596;8.690;2023-08-06T03:26:53;16.70;99.90
14170;DHT22;63889;50.596;8.690;2023-08-06T03:29:19;16.50;99.90
14170;DHT22;63889;50.596;8.690;2023-08-06T03:31:45;16.40;99.90
14170;DHT22;63889;50.596;8.690;2023-08-06T03:34:10;16.40;99.90
14170;DHT22;63889;50.596;8.690;2023-08-06T03:36:36;16.30;99.90
14170;DHT22;63889;50.596;8.690;2023-08-06T03:39:01;16.30;99.90
14170;DHT22;63889;50.596;8.690;2023-08-06T03:41:27;16.30;99.90
14170;DHT22;63889;50.596;8.690;2023-08-06T03:43:53;16.10;99.90
14170;DHT22;63889;50.596;8.690;2023-08-06T03:46:18;16.00;99.90
14170;DHT22;63889;50.596;8.690;2023-08-06T03:48:44;16.00;99.90
14170;DHT22;63889;50.596;8.690;2023-08-06T03:51:09;16.00;99.90
14170;DHT22;63889;50.596;8.690;2023-08-06T03:53:35;15.90;99.90
14170;DHT22;63889;50.596;8.690;2023-08-06T03:56:00;15.80;99.90
14170;DHT22;63889;50.596;8.690;2023-08-06T03:58:26;15.90;99.90
14170;DHT22;63889;50.596;8.690;2023-08-06T04:01:02;15.80;99.90
14170;DHT22;63889;50.596;8.690;2023-08-06T04:03:28;15.80;99.90
14170;DHT22;63889;50.596;8.690;2023-08-06T04:05:54;15.80;99.90
14170;DHT22;63889;50.596;8.690;2023-08-06T04:08:20;15.80;99.90
14170;DHT22;63889;50.596;8.690;2023-08-06T04:10:45;15.80;99.90
14170;DHT22;63889;50.596;8.690;2023-08-06T04:13:14;15.80;99.90
14170;DHT22;63889;50.596;8.690;2023-08-06T04:15:39;15.70;99.90
14170;DHT22;63889;50.596;8.690;2023-08-06T04:18:05;15.80;99.90
14170;DHT22;63889;50.596;8.690;2023-08-06T04:20:30;15.70;99.90
14170;DHT22;63889;50.596;8.690;2023-08-06T04:22:59;15.70;99.90
14170;DHT22;63889;50.596;8.690;2023-08-06T04:25:31;15.70;99.90
14170;DHT22;63889;50.596;8.690;2023-08-06T04:27:56;15.80;99.90
14170;DHT22;63889;50.596;8.690;2023-08-06T04:30:22;15.70;99.90
14170;DHT22;63889;50.596;8.690;2023-08-06T04:32:49;15.70;99.90
14170;DHT22;63889;50.596;8.690;2023-08-06T04:35:15;15.70;99.90
14170;DHT22;63889;50.596;8.690;2023-08-06T04:37:40;15.70;99.90
14170;DHT22;63889;50.596;8.690;2023-08-06T04:40:07;15.60;99.90
14170;DHT22;63889;50.596;8.690;2023-08-06T04:42:33;15.60;99.90
14170;DHT22;63889;50.596;8.690;2023-08-06T04:44:58;15.70;99.90
14170;DHT22;63889;50.596;8.690;2023-08-06T04:47:24;15.70;99.90
14170;DHT22;63889;50.596;8.690;2023-08-06T04:49:51;15.70;99.90
14170;DHT22;63889;50.596;8.690;2023-08-06T04:52:16;15.70;99.90
14170;DHT22;63889;50.596;8.690;2023-08-06T04:54:43;15.80;99.90
14170;DHT22;63889;50.596;8.690;2023-08-06T04:57:09;15.90;99.90
14170;DHT22;63889;50.596;8.690;2023-08-06T04:59:35;16.00;99.90
14170;DHT22;63889;50.596;8.690;2023-08-06T05:02:00;15.90;99.90
14170;DHT22;63889;50.596;8.690;2023-08-06T05:04:27;16.00;99.90
14170;DHT22;63889;50.596;8.690;2023-08-06T05:06:52;16.00;99.90
14170;DHT22;63889;50.596;8.690;2023-08-06T05:09:18;16.20;99.90
14170;DHT22;63889;50.596;8.690;2023-08-06T05:11:43;16.20;99.90
14170;DHT22;63889;50.596;8.690;2023-08-06T05:14:09;16.20;99.90
14170;DHT22;63889;50.596;8.690;2023-08-06T05:16:34;16.20;99.90
14170;DHT22;63889;50.596;8.690;2023-08-06T05:19:00;16.30;99.90
14170;DHT22;63889;50.596;8.690;2023-08-06T05:21:25;16.30;99.90
14170;DHT22;63889;50.596;8.690;2023-08-06T05:23:51;16.20;99.90
14170;DHT22;63889;50.596;8.690;2023-08-06T05:26:16;16.10;99.90
14170;DHT22;63889;50.596;8.690;2023-08-06T05:28:44;16.20;99.90
14170;DHT22;63889;50.596;8.690;2023-08-06T05:31:11;16.20;99.90
14170;DHT22;63889;50.596;8.690;2023-08-06T05:33:36;16.10;99.90
14170;DHT22;63889;50.596;8.690;2023-08-06T05:36:02;16.10;99.90
14170;DHT22;63889;50.596;8.690;2023-08-06T05:38:29;16.00;99.90
14170;DHT22;63889;50.596;8.690;2023-08-06T05:40:54;16.10;99.90
14170;DHT22;63889;50.596;8.690;2023-08-06T05:43:20;16.30;99.90
14170;DHT22;63889;50.596;8.690;2023-08-06T05:45:46;16.20;99.90
14170;DHT22;63889;50.596;8.690;2023-08-06T05:48:12;16.30;99.90
14170;DHT22;63889;50.596;8.690;2023-08-06T05:50:37;16.20;99.90
14170;DHT22;63889;50.596;8.690;2023-08-06T05:53:03;16.40;99.90
14170;DHT22;63889;50.596;8.690;2023-08-06T05:55:28;16.30;99.90
14170;DHT22;63889;50.596;8.690;2023-08-06T05:57:54;16.40;99.90
14170;DHT22;63889;50.596;8.690;2023-08-06T06:00:21;16.30;99.90
14170;DHT22;63889;50.596;8.690;2023-08-06T06:02:47;16.30;99.90
14170;DHT22;63889;50.596;8.690;2023-08-06T06:05:12;16.50;99.90
14170;DHT22;63889;50.596;8.690;2023-08-06T06:07:38;16.30;99.90
14170;DHT22;63889;50.596;8.690;2023-08-06T06:10:03;16.30;99.90
14170;DHT22;63889;50.596;8.690;2023-08-06T06:12:29;16.40;99.90
14170;DHT22;63889;50.596;8.690;2023-08-06T06:14:55;16.40;99.90
14170;DHT22;63889;50.596;8.690;2023-08-06T06:17:21;16.60;99.90
14170;DHT22;63889;50.596;8.690;2023-08-06T06:19:46;16.50;99.90
14170;DHT22;63889;50.596;8.690;2023-08-06T06:22:12;16.50;99.90
14170;DHT22;63889;50.596;8.690;2023-08-06T06:24:37;16.70;99.90
14170;DHT22;63889;50.596;8.690;2023-08-06T06:27:03;16.60;99.90
14170;DHT22;63889;50.596;8.690;2023-08-06T06:29:29;16.70;99.90
14170;DHT22;63889;50.596;8.690;2023-08-06T06:31:55;16.70;99.90
14170;DHT22;63889;50.596;8.690;2023-08-06T06:34:20;16.70;99.90
14170;DHT22;63889;50.596;8.690;2023-08-06T06:36:46;16.70;99.90
14170;DHT22;63889;50.596;8.690;2023-08-06T06:39:11;16.80;99.90
14170;DHT22;63889;50.596;8.690;2023-08-06T06:41:37;16.90;99.90
14170;DHT22;63889;50.596;8.690;2023-08-06T06:44:03;16.90;99.90
14170;DHT22;63889;50.596;8.690;2023-08-06T06:46:28;17.00;99.90
14170;DHT22;63889;50.596;8.690;2023-08-06T06:48:54;17.00;99.90
14170;DHT22;63889;50.596;8.690;2023-08-06T06:51:19;16.70;99.90
14170;DHT22;63889;50.596;8.690;2023-08-06T06:53:45;16.80;99.90
14170;DHT22;63889;50.596;8.690;2023-08-06T06:56:10;16.70;99.90
14170;DHT22;63889;50.596;8.690;2023-08-06T06:58:36;16.50;99.90
14170;DHT22;63889;50.596;8.690;2023-08-06T07:01:02;16.50;99.90
14170;DHT22;63889;50.596;8.690;2023-08-06T07:03:27;16.50;99.90
14170;DHT22;63889;50.596;8.690;2023-08-06T07:05:57;16.50;99.90
14170;DHT22;63889;50.596;8.690;2023-08-06T07:08:24;16.50;99.90
14170;DHT22;63889;50.596;8.690;2023-08-06T07:10:49;16.50;99.90
14170;DHT22;63889;50.596;8.690;2023-08-06T07:13:15;16.60;99.90
14170;DHT22;63889;50.596;8.690;2023-08-06T07:15:56;16.70;99.90
14170;DHT22;63889;50.596;8.690;2023-08-06T07:18:23;16.60;99.90
14170;DHT22;63889;50.596;8.690;2023-08-06T07:20:52;16.60;99.90
14170;DHT22;63889;50.596;8.690;2023-08-06T07:23:20;16.60;99.90
14170;DHT22;63889;50.596;8.690;2023-08-06T07:25:47;16.70;99.90
14170;DHT22;63889;50.596;8.690;2023-08-06T07:28:13;16.80;99.90
14170;DHT22;63889;50.596;8.690;2023-08-06T07:30:39;16.80;99.90
14170;DHT22;63889;50.596;8.690;2023-08-06T07:33:05;17.00;99.90
14170;DHT22;63889;50.596;8.690;2023-08-06T07:35:31;17.00;99.90
14170;DHT22;63889;50.596;8.690;2023-08-06T07:37:57;17.00;99.90
14170;DHT22;63889;50.596;8.690;2023-08-06T07:40:22;16.90;99.90
14170;DHT22;63889;50.596;8.690;2023-08-06T07:42:48;16.90;99.90
14170;DHT22;63889;50.596;8.690;2023-08-06T07:45:14;16.90;99.90
14170;DHT22;63889;50.596;8.690;2023-08-06T07:47:40;16.90;99.90
14170;DHT22;63889;50.596;8.690;2023-08-06T07:50:06;16.90;99.90
14170;DHT22;63889;50.596;8.690;2023-08-06T07:52:31;16.90;99.90
14170;DHT22;63889;50.596;8.690;2023-08-06T07:54:57;17.00;99.90
14170;DHT22;63889;50.596;8.690;2023-08-06T07:57:23;17.00;99.90
14170;DHT22;63889;50.596;8.690;2023-08-06T07:59:49;17.10;99.90
14170;DHT22;63889;50.596;8.690;2023-08-06T08:02:15;17.10;99.90
14170;DHT22;63889;50.596;8.690;2023-08-06T08:04:40;17.10;99.90
14170;DHT22;63889;50.596;8.690;2023-08-06T08:07:06;17.10;99.90
14170;DHT22;63889;50.596;8.690;2023-08-06T08:09:31;17.10;99.90
14170;DHT22;63889;50.596;8.690;2023-08-06T08:11:57;17.00;99.90
14170;DHT22;63889;50.596;8.690;2023-08-06T08:14:23;17.00;99.90
14170;DHT22;63889;50.596;8.690;2023-08-06T08:16:48;17.00;99.90
14170;DHT22;63889;50.596;8.690;2023-08-06T08:19:14;17.10;99.90
14170;DHT22;63889;50.596;8.690;2023-08-06T08:21:39;17.20;99.90
14170;DHT22;63889;50.596;8.690;2023-08-06T08:24:05;17.00;99.90
14170;DHT22;63889;50.596;8.690;2023-08-06T08:26:30;16.80;99.90
14170;DHT22;63889;50.596;8.690;2023-08-06T08:29:09;16.60;99.90
14170;DHT22;63889;50.596;8.690;2023-08-06T08:31:51;16.60;99.90
14170;DHT22;63889;50.596;8.690;2023-08-06T08:34:17;16.60;99.90
14170;DHT22;63889;50.596;8.690;2023-08-06T08:36:43;16.40;99.90
14170;DHT22;63889;50.596;8.690;2023-08-06T08:39:09;16.50;99.90
14170;DHT22;63889;50.596;8.690;2023-08-06T08:41:36;16.60;99.90
14170;DHT22;63889;50.596;8.690;2023-08-06T08:44:02;16.60;99.90
14170;DHT22;63889;50.596;8.690;2023-08-06T08:46:29;16.60;99.90
14170;DHT22;63889;50.596;8.690;2023-08-06T08:48:57;16.60;99.90
14170;DHT22;63889;50.596;8.690;2023-08-06T08:51:26;16.60;99.90
14170;DHT22;63889;50.596;8.690;2023-08-06T08:53:53;16.50;99.90
14170;DHT22;63889;50.596;8.690;2023-08-06T08:56:21;16.50;99.90
14170;DHT22;63889;50.596;8.690;2023-08-06T08:58:47;16.60;99.90
14170;DHT22;63889;50.596;8.690;2023-08-06T09:01:15;16.70;99.90
14170;DHT22;63889;50.596;8.690;2023-08-06T09:03:42;16.70;99.90
14170;DHT22;63889;50.596;8.690;2023-08-06T09:06:09;16.80;99.90
14170;DHT22;63889;50.596;8.690;2023-08-06T09:08:40;16.90;99.90
14170;DHT22;63889;50.596;8.690;2023-08-06T09:11:09;16.80;99.90
14170;DHT22;63889;50.596;8.690;2023-08-06T09:13:37;16.60;99.90
14170;DHT22;63889;50.596;8.690;2023-08-06T09:16:03;16.50;99.90
14170;DHT22;63889;50.596;8.690;2023-08-06T09:18:29;16.50;99.90
14170;DHT22;63889;50.596;8.690;2023-08-06T09:20:56;16.60;99.90
14170;DHT22;63889;50.596;8.690;2023-08-06T09:23:27;16.80;99.90
14170;DHT22;63889;50.596;8.690;2023-08-06T09:25:54;16.90;99.90
14170;DHT22;63889;50.596;8.690;2023-08-06T09:28:20;16.90;99.90
14170;DHT22;63889;50.596;8.690;2023-08-06T09:30:47;16.90;99.90
14170;DHT22;63889;50.596;8.690;2023-08-06T09:33:17;16.80;99.90
14170;DHT22;63889;50.596;8.690;2023-08-06T09:35:46;16.70;99.90
14170;DHT22;63889;50.596;8.690;2023-08-06T09:38:12;16.80;99.90
14170;DHT22;63889;50.596;8.690;2023-08-06T09:40:40;16.80;99.90
14170;DHT22;63889;50.596;8.690;2023-08-06T09:43:06;16.90;99.90
14170;DHT22;63889;50.596;8.690;2023-08-06T09:45:32;17.10;99.90
14170;DHT22;63889;50.596;8.690;2023-08-06T09:48:05;17.10;99.90
14170;DHT22;63889;50.596;8.690;2023-08-06T09:50:32;17.10;99.90
14170;DHT22;63889;50.596;8.690;2023-08-06T09:53:14;17.00;99.90
14170;DHT22;63889;50.596;8.690;2023-08-06T09:55:39;17.10;99.90
14170;DHT22;63889;50.596;8.690;2023-08-06T09:58:05;17.30;99.90
14170;DHT22;63889;50.596;8.690;2023-08-06T10:00:33;17.60;99.90
14170;DHT22;63889;50.596;8.690;2023-08-06T10:03:00;17.70;99.90
14170;DHT22;63889;50.596;8.690;2023-08-06T10:05:26;17.70;99.90
14170;DHT22;63889;50.596;8.690;2023-08-06T10:07:52;17.80;99.90
14170;DHT22;63889;50.596;8.690;2023-08-06T10:10:18;18.10;99.90
14170;DHT22;63889;50.596;8.690;2023-08-06T10:12:50;18.20;99.90
14170;DHT22;63889;50.596;8.690;2023-08-06T10:15:20;18.30;99.90
14170;DHT22;63889;50.596;8.690;2023-08-06T10:17:47;18.60;99.90
14170;DHT22;63889;50.596;8.690;2023-08-06T10:20:14;18.90;99.90
14170;DHT22;63889;50.596;8.690;2023-08-06T10:22:44;18.90;99.90
14170;DHT22;63889;50.596;8.690;2023-08-06T10:25:16;19.00;99.90
14170;DHT22;63889;50.596;8.690;2023-08-06T10:30:32;18.70;99.90
14170;DHT22;63889;50.596;8.690;2023-08-06T10:33:00;18.70;99.90
14170;DHT22;63889;50.596;8.690;2023-08-06T10:35:37;18.60;99.90
14170;DHT22;63889;50.596;8.690;2023-08-06T10:38:10;18.50;99.90
14170;DHT22;63889;50.596;8.690;2023-08-06T10:40:37;18.40;99.90
14170;DHT22;63889;50.596;8.690;2023-08-06T10:43:04;18.40;99.90
14170;DHT22;63889;50.596;8.690;2023-08-06T10:45:35;18.40;99.90
14170;DHT22;63889;50.596;8.690;2023-08-06T10:48:00;18.30;99.90
14170;DHT22;63889;50.596;8.690;2023-08-06T10:50:26;18.10;99.90
14170;DHT22;63889;50.596;8.690;2023-08-06T10:52:52;17.80;99.90
14170;DHT22;63889;50.596;8.690;2023-08-06T10:55:28;17.60;99.90
14170;DHT22;63889;50.596;8.690;2023-08-06T10:57:55;17.60;99.90
14170;DHT22;63889;50.596;8.690;2023-08-06T11:00:22;17.70;99.90
14170;DHT22;63889;50.596;8.690;2023-08-06T11:02:49;17.70;99.90
14170;DHT22;63889;50.596;8.690;2023-08-06T11:05:15;17.80;99.90
14170;DHT22;63889;50.596;8.690;2023-08-06T11:07:40;17.90;99.90
14170;DHT22;63889;50.596;8.690;2023-08-06T11:10:13;18.10;99.90
14170;DHT22;63889;50.596;8.690;2023-08-06T11:12:39;18.20;99.90
14170;DHT22;63889;50.596;8.690;2023-08-06T11:15:05;18.20;99.90
14170;DHT22;63889;50.596;8.690;2023-08-06T11:17:33;18.20;99.90
14170;DHT22;63889;50.596;8.690;2023-08-06T11:20:03;18.30;99.90
14170;DHT22;63889;50.596;8.690;2023-08-06T11:22:29;18.20;99.90
14170;DHT22;63889;50.596;8.690;2023-08-06T11:24:55;18.10;99.90
14170;DHT22;63889;50.596;8.690;2023-08-06T11:27:21;18.10;99.90
14170;DHT22;63889;50.596;8.690;2023-08-06T11:29:47;18.10;99.90
14170;DHT22;63889;50.596;8.690;2023-08-06T11:32:12;18.10;99.90
14170;DHT22;63889;50.596;8.690;2023-08-06T11:34:39;18.10;99.90
14170;DHT22;63889;50.596;8.690;2023-08-06T11:37:06;18.00;99.90
14170;DHT22;63889;50.596;8.690;2023-08-06T11:39:36;17.80;99.90
14170;DHT22;63889;50.596;8.690;2023-08-06T11:42:06;17.90;99.90
14170;DHT22;63889;50.596;8.690;2023-08-06T11:44:34;17.80;99.90
14170;DHT22;63889;50.596;8.690;2023-08-06T11:47:01;17.90;99.90
14170;DHT22;63889;50.596;8.690;2023-08-06T11:52:29;17.80;99.90
14170;DHT22;63889;50.596;8.690;2023-08-06T11:55:06;17.80;99.90
14170;DHT22;63889;50.596;8.690;2023-08-06T11:57:34;17.80;99.90
14170;DHT22;63889;50.596;8.690;2023-08-06T12:00:11;18.00;99.90
14170;DHT22;63889;50.596;8.690;2023-08-06T12:02:39;18.20;99.90
14170;DHT22;63889;50.596;8.690;2023-08-06T12:05:12;18.30;99.90
14170;DHT22;63889;50.596;8.690;2023-08-06T12:07:41;18.20;99.90
14170;DHT22;63889;50.596;8.690;2023-08-06T12:10:07;18.20;99.90
14170;DHT22;63889;50.596;8.690;2023-08-06T12:12:34;18.00;99.90
14170;DHT22;63889;50.596;8.690;2023-08-06T12:15:00;17.90;99.90
14170;DHT22;63889;50.596;8.690;2023-08-06T12:17:26;17.90;99.90
14170;DHT22;63889;50.596;8.690;2023-08-06T12:19:51;17.90;99.90
14170;DHT22;63889;50.596;8.690;2023-08-06T12:22:17;17.80;99.90
14170;DHT22;63889;50.596;8.690;2023-08-06T12:24:44;17.70;99.90
14170;DHT22;63889;50.596;8.690;2023-08-06T12:27:11;17.70;99.90
14170;DHT22;63889;50.596;8.690;2023-08-06T12:29:47;17.70;99.90
14170;DHT22;63889;50.596;8.690;2023-08-06T12:32:13;17.70;99.90
14170;DHT22;63889;50.596;8.690;2023-08-06T12:34:42;17.50;99.90
14170;DHT22;63889;50.596;8.690;2023-08-06T12:37:09;17.40;99.90
14170;DHT22;63889;50.596;8.690;2023-08-06T12:39:35;17.10;99.90
14170;DHT22;63889;50.596;8.690;2023-08-06T12:42:01;16.90;99.90
14170;DHT22;63889;50.596;8.690;2023-08-06T12:44:28;16.70;99.90
14170;DHT22;63889;50.596;8.690;2023-08-06T12:46:54;16.50;99.90
14170;DHT22;63889;50.596;8.690;2023-08-06T12:49:20;16.30;99.90
14170;DHT22;63889;50.596;8.690;2023-08-06T12:51:50;16.20;99.90
14170;DHT22;63889;50.596;8.690;2023-08-06T12:54:17;16.00;99.90
14170;DHT22;63889;50.596;8.690;2023-08-06T12:56:46;15.90;99.90
14170;DHT22;63889;50.596;8.690;2023-08-06T12:59:14;15.80;99.90
14170;DHT22;63889;50.596;8.690;2023-08-06T13:01:40;15.80;99.90
14170;DHT22;63889;50.596;8.690;2023-08-06T13:04:05;15.90;99.90
14170;DHT22;63889;50.596;8.690;2023-08-06T13:06:31;16.00;99.90
14170;DHT22;63889;50.596;8.690;2023-08-06T13:09:01;16.00;99.90
14170;DHT22;63889;50.596;8.690;2023-08-06T13:11:27;15.90;99.90
14170;DHT22;63889;50.596;8.690;2023-08-06T13:13:53;15.80;99.90
14170;DHT22;63889;50.596;8.690;2023-08-06T13:16:18;15.70;99.90
14170;DHT22;63889;50.596;8.690;2023-08-06T13:18:44;15.60;99.90
14170;DHT22;63889;50.596;8.690;2023-08-06T13:21:09;15.50;99.90
14170;DHT22;63889;50.596;8.690;2023-08-06T13:23:35;15.40;99.90
14170;DHT22;63889;50.596;8.690;2023-08-06T13:26:01;15.30;99.90
14170;DHT22;63889;50.596;8.690;2023-08-06T13:28:28;15.20;99.90
14170;DHT22;63889;50.596;8.690;2023-08-06T13:30:53;15.20;99.90
14170;DHT22;63889;50.596;8.690;2023-08-06T13:33:19;15.20;99.90
14170;DHT22;63889;50.596;8.690;2023-08-06T13:35:44;15.10;99.90
14170;DHT22;63889;50.596;8.690;2023-08-06T13:38:10;15.20;99.90
14170;DHT22;63889;50.596;8.690;2023-08-06T13:40:36;15.10;99.90
14170;DHT22;63889;50.596;8.690;2023-08-06T13:43:01;15.00;99.90
14170;DHT22;63889;50.596;8.690;2023-08-06T13:45:27;15.10;99.90
14170;DHT22;63889;50.596;8.690;2023-08-06T13:47:54;15.10;99.90
14170;DHT22;63889;50.596;8.690;2023-08-06T13:50:20;15.20;99.90
14170;DHT22;63889;50.596;8.690;2023-08-06T13:52:47;15.10;99.90
14170;DHT22;63889;50.596;8.690;2023-08-06T13:55:12;15.10;99.90
14170;DHT22;63889;50.596;8.690;2023-08-06T13:57:38;15.10;99.90
14170;DHT22;63889;50.596;8.690;2023-08-06T14:00:04;15.20;99.90
14170;DHT22;63889;50.596;8.690;2023-08-06T14:02:31;15.20;99.90
14170;DHT22;63889;50.596;8.690;2023-08-06T14:04:56;15.20;99.90
14170;DHT22;63889;50.596;8.690;2023-08-06T14:07:22;15.30;99.90
14170;DHT22;63889;50.596;8.690;2023-08-06T14:09:48;15.30;99.90
14170;DHT22;63889;50.596;8.690;2023-08-06T14:12:14;15.30;99.90
14170;DHT22;63889;50.596;8.690;2023-08-06T14:14:40;15.30;99.90
14170;DHT22;63889;50.596;8.690;2023-08-06T14:17:05;15.30;99.90
14170;DHT22;63889;50.596;8.690;2023-08-06T14:19:31;15.40;99.90
14170;DHT22;63889;50.596;8.690;2023-08-06T14:21:57;15.40;99.90
14170;DHT22;63889;50.596;8.690;2023-08-06T14:24:22;15.50;99.90
14170;DHT22;63889;50.596;8.690;2023-08-06T14:26:48;15.50;99.90
14170;DHT22;63889;50.596;8.690;2023-08-06T14:29:14;15.60;99.90
14170;DHT22;63889;50.596;8.690;2023-08-06T14:31:40;15.60;99.90
14170;DHT22;63889;50.596;8.690;2023-08-06T14:34:06;15.60;99.90
14170;DHT22;63889;50.596;8.690;2023-08-06T14:36:32;15.70;99.90
14170;DHT22;63889;50.596;8.690;2023-08-06T14:38:57;15.70;99.90
14170;DHT22;63889;50.596;8.690;2023-08-06T14:41:23;15.80;99.90
14170;DHT22;63889;50.596;8.690;2023-08-06T14:43:49;15.80;99.90
14170;DHT22;63889;50.596;8.690;2023-08-06T14:46:15;15.80;99.90
14170;DHT22;63889;50.596;8.690;2023-08-06T14:48:40;15.80;99.90
14170;DHT22;63889;50.596;8.690;2023-08-06T14:51:07;15.90;99.90
14170;DHT22;63889;50.596;8.690;2023-08-06T14:53:33;16.00;99.90
14170;DHT22;63889;50.596;8.690;2023-08-06T14:55:59;16.00;99.90
14170;DHT22;63889;50.596;8.690;2023-08-06T14:58:24;16.00;99.90
14170;DHT22;63889;50.596;8.690;2023-08-06T15:00:50;16.00;99.90
14170;DHT22;63889;50.596;8.690;2023-08-06T15:03:15;16.20;99.90
14170;DHT22;63889;50.596;8.690;2023-08-06T15:05:43;16.20;99.90
14170;DHT22;63889;50.596;8.690;2023-08-06T15:08:10;16.20;99.90
14170;DHT22;63889;50.596;8.690;2023-08-06T15:10:35;16.20;99.90
14170;DHT22;63889;50.596;8.690;2023-08-06T15:13:01;16.20;99.90
14170;DHT22;63889;50.596;8.690;2023-08-06T15:15:28;16.30;99.90
14170;DHT22;63889;50.596;8.690;2023-08-06T15:17:53;16.20;99.90
14170;DHT22;63889;50.596;8.690;2023-08-06T15:20:19;16.20;99.90
14170;DHT22;63889;50.596;8.690;2023-08-06T15:22:45;16.20;99.90
14170;DHT22;63889;50.596;8.690;2023-08-06T15:25:10;16.20;99.90
14170;DHT22;63889;50.596;8.690;2023-08-06T15:27:36;16.20;99.90
14170;DHT22;63889;50.596;8.690;2023-08-06T15:30:03;16.20;99.90
14170;DHT22;63889;50.596;8.690;2023-08-06T15:32:28;16.20;99.90
14170;DHT22;63889;50.596;8.690;2023-08-06T15:34:54;16.20;99.90